createdAt,value
2018-05-21T00:00:01.155Z,3.6
2018-05-21T00:05:01.120Z,4.0
2018-05-21T00:10:01.123Z,4.1
2018-05-21T00:15:01.113Z,4.0
2018-05-21T00:25:01.115Z,4.0
2018-05-21T00:30:01.157Z,3.4
2018-05-21T00:35:01.083Z,3.6
2018-05-21T00:40:01.118Z,3.5
2018-05-21T00:45:01.051Z,3.7
2018-05-21T00:50:01.070Z,4.0
2018-05-21T01:10:01.548Z,4.0
2018-05-21T01:15:01.387Z,4.4
2018-05-21T01:20:01.826Z,4.1
2018-05-21T01:25:01.431Z,4.1
2018-05-21T01:30:01.540Z,4.0
2018-05-21T01:35:01.415Z,4.1
2018-05-21T01:45:02.177Z,4.6
2018-05-21T01:50:01.442Z,4.6
2018-05-21T01:55:01.384Z,5.2
2018-05-21T02:00:01.763Z,5.3
2018-05-21T02:05:01.395Z,5.5
2018-05-21T02:10:01.640Z,5.6
2018-05-21T02:15:01.423Z,6.0
2018-05-21T02:20:01.633Z,5.9
2018-05-21T02:25:01.388Z,6.1
2018-05-21T02:30:01.630Z,6.1
2018-05-21T02:35:01.375Z,6.1
2018-05-21T02:40:01.573Z,6.0
2018-05-21T02:45:01.417Z,6.0
2018-05-21T02:50:01.506Z,6.2
2018-05-21T02:55:01.437Z,6.4
2018-05-21T03:00:01.547Z,6.5
2018-05-21T03:05:01.413Z,7.2
2018-05-21T03:10:01.676Z,7.7
2018-05-21T03:15:01.385Z,7.7
2018-05-21T03:20:01.766Z,7.5
2018-05-21T03:25:01.360Z,7.6
2018-05-21T03:30:01.454Z,7.0
2018-05-21T03:35:01.413Z,6.4
2018-05-21T03:40:01.645Z,6.2
2018-05-21T03:45:01.432Z,6.6
2018-05-21T03:50:01.831Z,6.9
2018-05-21T03:55:01.434Z,6.7
2018-05-21T04:20:00.861Z,6.2
2018-05-21T04:30:00.832Z,7.1
2018-05-21T04:35:00.766Z,7.1
2018-05-21T04:40:00.850Z,7.0
2018-05-21T04:45:01.023Z,7.2
2018-05-21T04:50:00.969Z,7.0
2018-05-21T05:00:00.896Z,6.5
2018-05-21T05:05:00.806Z,6.8
2018-05-21T05:10:00.834Z,7.2
2018-05-21T05:15:00.771Z,7.6
2018-05-21T05:20:00.838Z,8.0
2018-05-21T05:25:00.777Z,8.3
2018-05-21T05:30:00.963Z,8.4
2018-05-21T05:40:00.871Z,8.0
2018-05-21T05:45:00.811Z,7.9
2018-05-21T05:50:00.877Z,7.8
2018-05-21T05:55:00.801Z,7.4
2018-05-21T06:00:00.990Z,7.4
2018-05-21T06:10:00.875Z,7.3
2018-05-21T06:15:00.809Z,7.4
2018-05-21T06:20:00.948Z,7.3
2018-05-21T06:25:00.812Z,7.0
2018-05-21T06:30:00.828Z,6.8
2018-05-21T06:35:00.815Z,7.2
2018-05-21T06:40:01.034Z,6.6
2018-05-21T06:45:00.811Z,6.8
2018-05-21T06:50:00.884Z,6.5
2018-05-21T06:55:00.817Z,6.2
2018-05-21T07:00:01.011Z,5.7
2018-05-21T07:05:00.819Z,5.5
2018-05-21T07:10:00.970Z,5.6
2018-05-21T07:15:00.824Z,6.2
2018-05-21T07:20:01.175Z,6.8
2018-05-21T07:25:00.813Z,7.9
2018-05-21T07:30:01.270Z,8.7
2018-05-21T07:35:00.820Z,9.1
2018-05-21T07:40:01.007Z,8.8
2018-05-21T07:45:00.818Z,8.2
2018-05-21T07:50:00.887Z,7.3
2018-05-21T07:55:00.820Z,6.6
2018-05-21T08:00:00.950Z,5.9
2018-05-21T08:05:00.794Z,5.8
2018-05-21T08:10:00.981Z,6.2
2018-05-21T08:15:00.819Z,6.5
2018-05-21T08:20:00.969Z,6.8
2018-05-21T08:25:00.898Z,6.9
2018-05-21T08:30:00.891Z,7.1
2018-05-21T08:40:00.857Z,6.7
2018-05-21T08:45:00.776Z,7.0
2018-05-21T08:50:00.989Z,7.0
2018-05-21T08:55:00.795Z,6.8
2018-05-21T09:00:00.954Z,6.9
2018-05-21T09:05:00.817Z,6.9
2018-05-21T09:10:01.236Z,6.8
2018-05-21T09:15:00.837Z,6.7
2018-05-21T09:25:00.900Z,6.8
2018-05-21T09:30:00.966Z,7.2
2018-05-21T09:35:00.837Z,7.4
2018-05-21T09:40:00.901Z,7.8
2018-05-21T09:45:00.840Z,8.0
2018-05-21T09:50:00.927Z,8.1
2018-05-21T10:00:01.094Z,8.4
2018-05-21T10:05:00.808Z,8.7
2018-05-21T10:10:00.944Z,9.1
2018-05-21T10:15:00.862Z,9.7
2018-05-21T10:20:00.900Z,9.9
2018-05-21T10:25:00.850Z,9.3
2018-05-21T10:30:01.060Z,9.0
2018-05-21T10:35:00.842Z,8.6
2018-05-21T10:40:00.918Z,8.5
2018-05-21T10:45:00.847Z,8.2
2018-05-21T10:50:00.993Z,8.4
2018-05-21T10:55:00.855Z,8.4
2018-05-21T11:00:00.984Z,8.5
2018-05-21T11:05:00.824Z,8.8
2018-05-21T11:10:00.944Z,9.4
2018-05-21T11:15:00.873Z,9.6
2018-05-21T11:20:00.919Z,10.2
2018-05-21T11:30:00.883Z,10.4
2018-05-21T11:35:00.822Z,9.9
2018-05-21T11:40:00.949Z,9.6
2018-05-21T11:45:00.858Z,9.5
2018-05-21T11:50:00.927Z,9.6
2018-05-21T11:55:00.852Z,8.7
2018-05-21T12:00:01.086Z,8.4
2018-05-21T12:05:00.857Z,8.5
2018-05-21T12:10:00.956Z,7.6
2018-05-21T12:15:01.145Z,7.4
2018-05-21T12:25:00.990Z,7.4
2018-05-21T12:30:00.934Z,6.8
2018-05-21T12:35:00.863Z,7.0
2018-05-21T12:45:01.096Z,6.8
2018-05-21T12:50:00.932Z,6.6
2018-05-21T12:55:00.903Z,7.0
2018-05-21T13:00:00.936Z,6.9
2018-05-21T13:05:00.872Z,6.7
2018-05-21T13:10:01.026Z,6.6
2018-05-21T13:15:00.937Z,6.9
2018-05-21T13:20:01.004Z,7.0
2018-05-21T13:25:00.871Z,6.9
2018-05-21T13:30:00.990Z,7.0
2018-05-21T13:35:00.884Z,6.8
2018-05-21T13:40:00.949Z,6.7
2018-05-21T13:45:01.097Z,6.7
2018-05-21T13:50:01.010Z,6.8
2018-05-21T13:55:00.891Z,6.7
2018-05-21T14:00:01.013Z,7.0
2018-05-21T14:05:00.889Z,6.9
2018-05-21T14:10:01.053Z,6.5
2018-05-21T14:15:00.960Z,6.3
2018-05-21T14:25:01.082Z,6.3
2018-05-21T14:30:01.018Z,6.4
2018-05-21T14:35:00.853Z,6.5
2018-05-21T14:40:00.952Z,6.7
2018-05-21T14:45:01.136Z,6.4
2018-05-21T14:50:01.019Z,6.2
2018-05-21T14:55:01.072Z,5.7
2018-05-21T15:00:01.017Z,5.5
2018-05-21T15:05:00.862Z,5.3
2018-05-21T15:10:00.986Z,5.4
2018-05-21T15:15:02.210Z,5.6
2018-05-21T15:20:01.035Z,6.2
2018-05-21T15:30:00.990Z,6.2
2018-05-21T15:35:00.897Z,6.2
2018-05-21T15:40:00.991Z,6.0
2018-05-21T15:45:00.900Z,5.8
2018-05-21T15:50:00.965Z,5.6
2018-05-21T16:00:00.901Z,5.5
2018-05-21T16:05:00.898Z,5.6
2018-05-21T16:10:01.031Z,5.6
2018-05-21T16:15:00.868Z,5.4
2018-05-21T16:20:00.976Z,5.2
2018-05-21T16:30:01.038Z,5.0
2018-05-21T16:40:01.036Z,5.2
2018-05-21T16:45:00.902Z,5.0
2018-05-21T16:50:01.069Z,5.2
2018-05-21T16:55:00.915Z,5.4
2018-05-21T17:00:01.101Z,5.4
2018-05-21T17:05:01.124Z,5.2
2018-05-21T17:15:01.062Z,4.8
2018-05-21T17:20:01.235Z,4.7
2018-05-21T17:25:00.922Z,4.4
2018-05-21T17:30:00.991Z,4.4
2018-05-21T17:35:00.915Z,4.2
2018-05-21T17:40:00.977Z,4.4
2018-05-21T17:45:00.919Z,4.6
2018-05-21T17:50:01.047Z,4.9
2018-05-21T17:55:00.915Z,5.0
2018-05-21T18:00:01.011Z,5.4
2018-05-21T18:05:00.921Z,5.4
2018-05-21T18:10:01.039Z,5.4
2018-05-21T18:15:00.894Z,5.5
2018-05-21T18:25:00.954Z,5.3
2018-05-21T18:30:01.159Z,5.4
2018-05-21T18:35:00.866Z,5.6
2018-05-21T18:40:00.959Z,5.4
2018-05-21T18:45:00.958Z,5.4
2018-05-21T18:50:00.899Z,5.6
2018-05-21T18:55:00.920Z,5.3
2018-05-21T19:00:01.189Z,5.4
2018-05-21T19:05:00.897Z,5.3
2018-05-21T19:10:01.066Z,5.5
2018-05-21T19:15:00.935Z,5.5
2018-05-21T19:20:00.999Z,5.6
2018-05-21T19:25:00.973Z,5.4
2018-05-21T19:30:01.067Z,5.2
2018-05-21T19:35:01.040Z,5.1
2018-05-21T19:40:00.999Z,5.2
2018-05-21T19:45:00.945Z,5.4
2018-05-21T19:50:01.011Z,5.5
2018-05-21T19:50:01.043Z,5.6
2018-05-21T19:55:00.856Z,5.6
2018-05-21T19:55:01.052Z,5.3
2018-05-21T20:00:01.472Z,5.8
2018-05-21T20:00:01.485Z,5.5
2018-05-21T20:05:00.937Z,5.5
2018-05-21T20:05:01.034Z,5.4
2018-05-21T20:15:01.037Z,6.0
2018-05-21T20:15:01.073Z,6.0
2018-05-21T20:20:01.015Z,6.2
2018-05-21T20:20:01.028Z,6.2
2018-05-21T20:30:01.037Z,6.5
2018-05-21T20:30:06.134Z,6.5
2018-05-21T20:35:00.913Z,6.4
2018-05-21T20:35:01.043Z,6.4
2018-05-21T20:40:01.063Z,6.0
2018-05-21T20:40:01.615Z,6.0
2018-05-21T20:45:00.912Z,6.0
2018-05-21T20:45:01.040Z,6.0
2018-05-21T20:50:00.985Z,6.2
2018-05-21T20:50:01.078Z,6.2
2018-05-21T20:55:00.877Z,6.5
2018-05-21T20:55:01.134Z,6.5
2018-05-21T21:00:01.046Z,6.6
2018-05-21T21:00:01.182Z,6.6
2018-05-21T21:05:00.888Z,7.3
2018-05-21T21:05:01.071Z,7.3
2018-05-21T21:10:00.985Z,7.7
2018-05-21T21:10:01.074Z,7.7
2018-05-21T21:15:00.943Z,7.6
2018-05-21T21:15:01.071Z,7.6
2018-05-21T21:20:01.018Z,7.6
2018-05-21T21:20:01.080Z,7.6
2018-05-21T21:30:01.030Z,7.5
2018-05-21T21:30:01.072Z,7.5
2018-05-21T21:35:00.943Z,7.6
2018-05-21T21:35:01.039Z,7.6
2018-05-21T21:40:01.088Z,8.1
2018-05-21T21:40:06.067Z,8.1
2018-05-21T21:45:00.945Z,8.1
2018-05-21T21:45:01.093Z,8.1
2018-05-21T21:50:01.081Z,8.5
2018-05-21T21:50:01.142Z,8.5
2018-05-21T21:55:00.927Z,8.9
2018-05-21T21:55:01.151Z,8.9
2018-05-21T22:00:01.025Z,9.0
2018-05-21T22:00:01.081Z,9.0
2018-05-21T22:10:02.355Z,9.0
2018-05-21T22:15:00.955Z,9.2
2018-05-21T22:20:01.095Z,9.6
2018-05-21T22:25:01.015Z,9.8
2018-05-21T22:30:01.019Z,9.8
2018-05-21T22:35:00.948Z,9.8
2018-05-21T22:40:01.041Z,9.6
2018-05-21T22:45:00.972Z,9.5
2018-05-21T22:50:01.098Z,9.6
2018-05-21T23:00:01.021Z,10.1
2018-05-21T23:05:00.959Z,10.7
2018-05-21T23:10:01.137Z,11.0
2018-05-21T23:15:01.027Z,11.4
2018-05-21T23:20:01.101Z,11.8
2018-05-21T23:25:00.964Z,12.2
2018-05-21T23:30:01.100Z,12.4
2018-05-21T23:35:00.934Z,12.6
2018-05-21T23:40:01.033Z,12.5
2018-05-21T23:45:00.968Z,13.0
2018-05-21T23:50:01.065Z,13.5
2018-05-21T23:55:00.969Z,13.6
